EDT,Max TemperatureF,Mean TemperatureF,Min TemperatureF,Max Dew PointF,MeanDew PointF,Min DewpointF,Max Humidity, Mean Humidity, Min Humidity, Max Sea Level PressureIn, Mean Sea Level PressureIn, Min Sea Level PressureIn, Max VisibilityMiles, Mean VisibilityMiles, Min VisibilityMiles, Max Wind SpeedMPH, Mean Wind SpeedMPH, Max Gust SpeedMPH,PrecipitationIn, CloudCover, Events, WindDirDegrees
2013-4-1,52,44,37,47,41,13,100,85,36,29.79,29.66,29.59,10,8,1,24,16,32,0.13,6,Rain,247
2013-4-2,42,36,32,17,14,9,50,39,29,29.99,29.90,29.81,10,10,10,20,12,34,0.01,1,,286
2013-4-3,45,38,32,22,14,11,48,39,27,30.17,30.03,29.98,10,10,10,24,13,34,0.00,0,,286
2013-4-4,46,38,30,34,22,15,79,54,33,30.32,30.22,30.12,10,10,10,18,12,28,0.00,0,,261
2013-4-5,53,45,39,45,38,26,96,81,46,30.11,29.83,29.65,10,10,5,14,8,18,0.07,5,Rain,279
2013-4-6,46,39,27,27,17,2,78,43,16,30.35,30.17,29.87,10,10,10,18,13,26,0.02,1,,308
2013-4-7,50,34,19,43,31,17,89,74,41,30.35,30.24,30.08,10,10,10,23,9,30,0.00,1,,186
2013-4-8,64,54,44,45,42,39,97,73,40,30.12,30.06,30.01,10,10,8,14,9,18,0.00,1,,216
2013-4-9,72,58,44,49,46,40,100,82,41,30.10,29.97,29.87,10,8,1,20,11,28,0.00,3,Rain,186
2013-4-10,60,50,44,46,44,42,100,86,62,30.02,29.92,29.86,10,10,6,20,9,37,0.05,5,Rain,99
2013-4-11,52,48,44,46,42,35,100,85,58,30.12,29.95,29.80,10,8,0,18,7,26,0.05,8,Fog-Rain,47
2013-4-12,45,41,37,43,38,28,100,89,53,30.13,29.88,29.68,10,5,2,28,16,38,0.06,8,Rain,73
2013-4-13,53,46,39,41,38,36,96,84,55,29.95,29.83,29.65,10,10,8,23,13,34,0.27,6,Rain,329
2013-4-14,57,48,41,40,34,26,85,61,33,30.21,30.03,29.95,10,10,10,15,7,26,0.00,5,,279
2013-4-15,54,44,37,39,34,28,93,69,47,30.43,30.34,30.20,10,10,10,14,7,,0.02,0,,101
2013-4-16,57,42,30,48,38,28,100,86,62,30.42,30.35,30.16,10,7,0,22,6,30,0.02,1,Fog,184
2013-4-17,63,48,33,52,45,31,100,79,42,30.34,30.18,30.11,10,10,6,17,11,25,0.33,5,Rain,217
2013-4-18,57,42,28,47,37,26,96,73,45,30.42,30.33,30.18,10,10,9,17,7,22,0.00,2,,148
2013-4-19,64,57,51,58,55,49,100,94,77,30.17,29.97,29.78,10,5,0,26,16,39,0.01,8,Fog-Rain,197
2013-4-20,59,52,45,58,47,31,100,86,46,30.19,29.87,29.71,10,7,1,25,17,38,0.47,5,Rain,249
2013-4-21,50,39,28,35,25,20,85,52,36,30.67,30.49,30.22,10,10,10,17,11,28,0.00,0,,17
2013-4-22,51,39,28,37,32,26,89,66,44,30.70,30.63,30.53,10,10,10,22,13,31,0.00,4,,70
2013-4-23,46,44,42,46,42,36,100,93,76,30.51,30.30,29.96,10,6,2,22,17,34,1.33,8,Rain,49
2013-4-24,57,50,44,49,45,43,100,85,67,29.98,29.93,29.83,10,10,6,26,17,36,0.22,5,Rain,257
2013-4-25,60,45,33,52,43,32,100,85,44,30.25,30.08,29.92,10,8,0,15,10,30,0.04,4,Fog-Rain,239
2013-4-26,61,45,30,41,37,28,100,73,39,30.42,30.35,30.26,10,9,2,12,4,,0.00,0,,69
2013-4-27,57,42,28,44,32,28,100,83,34,30.42,30.39,30.34,10,5,0,10,2,,0.00,1,Fog,178
2013-4-28,60,45,30,45,39,29,100,79,47,30.37,30.31,30.28,10,8,1,13,3,,0.00,0,,193
2013-4-29,62,48,36,46,35,22,100,72,23,30.30,30.28,30.26,10,8,0,10,2,,0.00,0,Fog,179
2013-4-30,63,46,30,41,30,24,93,59,23,30.37,30.32,30.26,10,10,8,14,3,20,0.00,0,,92